createdAt,value
2022-11-01T00:03:48.364Z,15.33
2022-11-01T00:08:49.627Z,15.23
2022-11-01T00:13:51.108Z,15.09
2022-11-01T00:18:52.492Z,15.15
2022-11-01T00:23:53.747Z,15.24
2022-11-01T00:28:55.202Z,15.13
2022-11-01T00:33:56.812Z,15.20
2022-11-01T00:38:58.113Z,15.30
2022-11-01T00:43:59.579Z,15.38
2022-11-01T00:49:00.834Z,15.42
2022-11-01T00:54:02.159Z,15.44
2022-11-01T00:59:03.675Z,15.44
2022-11-01T01:04:05.223Z,15.39
2022-11-01T01:09:06.916Z,15.41
2022-11-01T01:14:08.163Z,15.28
2022-11-01T01:19:09.442Z,15.19
2022-11-01T01:24:10.780Z,15.23
2022-11-01T01:29:12.083Z,15.13
2022-11-01T01:34:13.342Z,15.05
2022-11-01T01:39:14.605Z,14.98
2022-11-01T01:44:47.429Z,15.02
2022-11-01T01:50:18.147Z,14.94
2022-11-01T01:55:26.332Z,14.90
2022-11-01T02:00:27.995Z,14.98
2022-11-01T02:05:48.534Z,15.00
2022-11-01T02:10:50.035Z,14.92
2022-11-01T02:16:18.933Z,15.10
2022-11-01T02:21:41.015Z,15.06
2022-11-01T02:26:57.387Z,14.96
2022-11-01T02:32:17.634Z,15.04
2022-11-01T02:37:23.368Z,15.00
2022-11-01T02:42:28.905Z,15.00
2022-11-01T02:47:31.874Z,15.22
2022-11-01T02:52:37.040Z,15.13
2022-11-01T02:57:41.054Z,15.09
2022-11-01T03:02:44.877Z,15.11
2022-11-01T03:07:52.764Z,15.08
2022-11-01T03:13:29.149Z,15.00
2022-11-01T03:18:35.651Z,15.02
2022-11-01T03:23:43.398Z,14.95
2022-11-01T03:28:49.183Z,14.93
2022-11-01T03:34:01.083Z,15.00
2022-11-01T03:39:14.564Z,15.03
2022-11-01T03:44:16.436Z,15.05
2022-11-01T03:49:18.998Z,15.02
2022-11-01T03:54:20.537Z,14.89
2022-11-01T03:59:26.455Z,14.89
2022-11-01T04:04:27.798Z,14.94
2022-11-01T04:09:29.049Z,14.97
2022-11-01T04:14:49.001Z,14.96
2022-11-01T04:20:08.716Z,14.83
2022-11-01T04:25:09.960Z,14.83
2022-11-01T04:30:11.580Z,14.85
2022-11-01T04:35:12.923Z,14.83
2022-11-01T04:40:15.070Z,14.84
2022-11-01T04:45:16.430Z,14.87
2022-11-01T04:50:19.878Z,14.84
2022-11-01T04:55:21.235Z,14.95
2022-11-01T05:00:23.214Z,14.94
2022-11-01T05:05:24.454Z,14.91
2022-11-01T05:10:25.722Z,14.91
2022-11-01T05:15:27.201Z,14.98
2022-11-01T05:20:30.493Z,15.05
2022-11-01T05:25:35.481Z,15.04
2022-11-01T05:30:40.553Z,15.11
2022-11-01T05:35:41.805Z,15.12
2022-11-01T05:40:43.079Z,15.08
2022-11-01T05:45:44.387Z,15.06
2022-11-01T05:50:46.803Z,15.13
2022-11-01T05:55:48.117Z,15.13
2022-11-01T06:00:49.348Z,15.14
2022-11-01T06:05:50.625Z,15.19
2022-11-01T06:10:52.705Z,15.20
2022-11-01T06:16:01.862Z,15.17
2022-11-01T06:21:03.179Z,15.19
2022-11-01T06:26:05.849Z,15.28
2022-11-01T06:31:07.324Z,15.22
2022-11-01T06:36:08.994Z,15.23
2022-11-01T06:41:17.190Z,15.16
2022-11-01T06:46:18.535Z,15.13
2022-11-01T06:51:19.810Z,15.15
2022-11-01T06:56:21.510Z,15.17
2022-11-01T07:01:24.948Z,15.15
2022-11-01T07:06:30.674Z,15.10
2022-11-01T07:11:33.495Z,15.16
2022-11-01T07:16:35.368Z,15.19
2022-11-01T07:21:37.044Z,15.36
2022-11-01T07:26:38.333Z,15.42
2022-11-01T07:31:39.691Z,15.48
2022-11-01T07:36:40.976Z,15.52
2022-11-01T07:41:42.289Z,15.51
2022-11-01T07:46:43.568Z,15.54
2022-11-01T07:51:44.960Z,15.55
2022-11-01T07:56:47.890Z,15.66
2022-11-01T08:01:49.282Z,15.70
2022-11-01T08:06:52.194Z,15.76
2022-11-01T08:11:53.867Z,15.86
2022-11-01T08:17:01.473Z,15.85
2022-11-01T08:22:03.124Z,15.78
2022-11-01T08:27:04.454Z,15.86
2022-11-01T08:32:05.801Z,15.97
2022-11-01T08:37:07.078Z,16.01
2022-11-01T08:42:09.174Z,16.02
2022-11-01T08:47:12.041Z,16.04
2022-11-01T08:52:13.339Z,16.11
2022-11-01T08:57:15.955Z,16.11
2022-11-01T09:02:17.707Z,16.25
2022-11-01T09:07:19.268Z,16.35
2022-11-01T09:12:24.424Z,16.56
2022-11-01T09:17:26.285Z,16.67
2022-11-01T09:22:28.834Z,16.61
2022-11-01T09:27:30.195Z,16.76
2022-11-01T09:32:31.591Z,17.24
2022-11-01T09:37:33.141Z,17.57
2022-11-01T09:42:39.848Z,17.92
2022-11-01T09:47:46.009Z,18.18
2022-11-01T09:52:48.722Z,19.07
2022-11-01T09:58:00.715Z,19.87
2022-11-01T10:03:21.523Z,19.71
2022-11-01T10:08:34.037Z,18.99
2022-11-01T10:13:57.314Z,20.27
2022-11-01T10:19:17.519Z,22.19
2022-11-01T10:24:49.417Z,23.87
2022-11-01T10:30:04.123Z,23.91
2022-11-01T10:35:14.714Z,24.64
2022-11-01T10:40:23.444Z,28.60
2022-11-01T10:45:25.005Z,30.06
2022-11-01T10:50:30.092Z,32.39
2022-11-01T10:55:56.785Z,32.73
2022-11-01T11:00:58.548Z,34.32
2022-11-01T11:06:07.254Z,35.11
2022-11-01T11:11:14.286Z,36.74
2022-11-01T11:16:26.726Z,36.04
2022-11-01T11:21:34.029Z,34.47
2022-11-01T11:26:39.242Z,36.71
2022-11-01T11:31:41.603Z,38.10
2022-11-01T11:36:46.760Z,37.35
2022-11-01T11:41:48.224Z,35.91
2022-11-01T11:46:58.395Z,37.06
2022-11-01T11:51:59.751Z,37.70
2022-11-01T11:57:09.069Z,37.65
2022-11-01T12:02:17.307Z,37.68
2022-11-01T12:07:27.618Z,37.43
2022-11-01T12:12:30.977Z,37.30
2022-11-01T12:17:35.830Z,37.25
2022-11-01T12:22:40.309Z,38.57
2022-11-01T12:27:50.684Z,37.59
2022-11-01T12:32:54.871Z,37.20
2022-11-01T12:38:08.423Z,36.51
2022-11-01T12:43:16.138Z,35.25
2022-11-01T12:48:33.414Z,35.96
2022-11-01T12:53:41.353Z,36.33
2022-11-01T12:58:42.661Z,36.79
2022-11-01T13:04:02.507Z,35.89
2022-11-01T13:09:22.110Z,37.83
2022-11-01T13:14:52.346Z,36.55
2022-11-01T13:20:31.286Z,35.18
2022-11-01T13:25:44.800Z,35.68
2022-11-01T13:31:16.568Z,35.08
2022-11-01T13:36:48.176Z,35.79
2022-11-01T13:42:16.210Z,37.43
2022-11-01T13:47:35.776Z,36.20
2022-11-01T13:52:45.578Z,36.45
2022-11-01T13:57:47.051Z,36.88
2022-11-01T14:02:59.052Z,38.24
2022-11-01T14:08:03.487Z,37.06
2022-11-01T14:13:11.731Z,35.42
2022-11-01T14:18:13.050Z,35.19
2022-11-01T14:23:27.665Z,34.85
2022-11-01T14:28:30.946Z,34.22
2022-11-01T14:33:33.370Z,32.96
2022-11-01T14:38:41.022Z,33.50
2022-11-01T14:43:48.924Z,31.07
2022-11-01T14:49:05.816Z,26.99
2022-11-01T14:54:45.502Z,23.64
2022-11-01T14:59:47.025Z,21.94
2022-11-01T15:04:57.267Z,21.03
2022-11-01T15:10:11.059Z,20.35
2022-11-01T15:15:28.563Z,20.07
2022-11-01T15:20:37.158Z,19.46
2022-11-01T15:25:40.562Z,18.87
2022-11-01T15:30:41.969Z,18.79
2022-11-01T15:35:43.361Z,18.56
2022-11-01T15:40:45.456Z,18.29
2022-11-01T15:45:52.271Z,18.12
2022-11-01T15:50:59.292Z,17.93
2022-11-01T15:56:12.841Z,17.80
2022-11-01T16:01:20.309Z,17.63
2022-11-01T16:06:25.357Z,17.42
2022-11-01T16:11:30.658Z,17.21
2022-11-01T16:17:02.992Z,16.94
2022-11-01T16:22:25.827Z,16.80
2022-11-01T16:27:28.114Z,16.72
2022-11-01T16:32:35.749Z,16.57
2022-11-01T16:37:42.989Z,16.61
2022-11-01T16:42:44.276Z,16.47
2022-11-01T16:47:45.701Z,16.33
2022-11-01T16:52:47.052Z,16.34
2022-11-01T16:57:48.375Z,16.24
2022-11-01T17:02:49.837Z,15.94
2022-11-01T17:07:51.178Z,15.84
2022-11-01T17:12:57.525Z,15.77
2022-11-01T17:18:06.298Z,15.74
2022-11-01T17:23:14.278Z,15.68
2022-11-01T17:28:15.586Z,15.54
2022-11-01T17:33:17.215Z,15.58
2022-11-01T17:38:30.171Z,15.53
2022-11-01T17:43:31.891Z,15.36
2022-11-01T17:48:33.361Z,15.29
2022-11-01T17:53:34.940Z,15.32
2022-11-01T17:58:36.636Z,15.17
2022-11-01T18:03:37.960Z,15.07
2022-11-01T18:08:45.707Z,14.91
2022-11-01T18:14:04.071Z,14.85
2022-11-01T18:19:34.491Z,14.73
2022-11-01T18:24:41.705Z,14.76
2022-11-01T18:29:47.031Z,14.64
2022-11-01T18:35:11.177Z,14.54
2022-11-01T18:40:23.167Z,14.44
2022-11-01T18:45:33.038Z,14.38
2022-11-01T18:50:38.462Z,14.28
2022-11-01T18:55:40.320Z,14.15
2022-11-01T19:00:42.840Z,14.06
2022-11-01T19:05:44.818Z,14.11
2022-11-01T19:10:46.309Z,14.08
2022-11-01T19:15:53.904Z,14.03
2022-11-01T19:20:57.226Z,14.00
2022-11-01T19:25:59.072Z,14.06
2022-11-01T19:31:08.420Z,14.13
2022-11-01T19:36:20.839Z,14.16
2022-11-01T19:41:33.352Z,14.20
2022-11-01T19:46:35.499Z,14.20
2022-11-01T19:51:36.882Z,14.22
2022-11-01T19:56:38.614Z,14.24
2022-11-01T20:01:42.735Z,14.24
2022-11-01T20:06:48.553Z,14.19
2022-11-01T20:11:50.177Z,14.07
2022-11-01T20:16:51.783Z,14.09
2022-11-01T20:21:53.134Z,14.00
2022-11-01T20:26:55.016Z,13.91
2022-11-01T20:31:56.337Z,13.78
2022-11-01T20:37:26.508Z,13.67
2022-11-01T20:42:19.258Z,13.63
2022-11-01T20:47:20.671Z,13.57
2022-11-01T20:57:44.628Z,13.48
2022-11-01T21:02:47.291Z,13.65
2022-11-01T21:07:49.639Z,13.76
2022-11-01T21:12:51.009Z,13.58
2022-11-01T21:18:07.757Z,13.35
2022-11-01T21:23:21.330Z,13.43
2022-11-01T21:28:55.257Z,13.34
2022-11-01T21:34:00.386Z,13.18
2022-11-01T21:39:15.000Z,13.33
2022-11-01T21:44:39.712Z,13.35
2022-11-01T21:49:41.097Z,13.29
2022-11-01T21:54:43.260Z,13.31
2022-11-01T21:59:44.833Z,13.40
2022-11-01T22:04:51.535Z,13.35
2022-11-01T22:09:52.883Z,13.38
2022-11-01T22:14:54.158Z,13.35
2022-11-01T22:19:55.452Z,13.32
2022-11-01T22:24:56.919Z,13.23
2022-11-01T22:29:58.198Z,13.23
2022-11-01T22:34:59.620Z,13.08
2022-11-01T22:40:09.013Z,13.16
2022-11-01T22:45:19.448Z,13.13
2022-11-01T22:50:26.527Z,13.05
2022-11-01T22:55:30.596Z,13.02
2022-11-01T23:00:40.997Z,13.11
2022-11-01T23:05:42.889Z,13.18
2022-11-01T23:10:47.977Z,13.16
2022-11-01T23:15:51.475Z,13.30
2022-11-01T23:20:55.959Z,13.28
2022-11-01T23:26:00.634Z,13.29
2022-11-01T23:31:05.789Z,13.33
2022-11-01T23:36:30.303Z,13.17
2022-11-01T23:41:37.530Z,13.05
2022-11-01T23:46:38.999Z,12.97
2022-11-01T23:51:40.361Z,12.95
2022-11-01T23:56:43.126Z,12.91
